METAR & TAF Report
Available data for CYAM from the past 6 hours
SAULT STE MARIE, ON
Metar
CYAM 231529Z 28012KT 3SM -SHRA SCT006 BKN016 OVC072 15/14 A2977 RMK CF3CU3AC2 CIG VRB 12-20 SLP086 DENSITY ALT 1000FT

15:29 UTC

Wind: 280° 12kt

Visibility: 3 SM

Sky: SCT 600 ft

Temp: 15 deg C / 59 deg F

Dewpoint: 14 deg C / 57.2 deg F

Pressure: 29.77 inHg

TAF
TAF CYAM 231338Z 2314/2402 23008KT P6SM -SHRA SCT008 OVC025 TEMPO 2314/2320 4SM -SHRA BR BKN008 OVC025 BECMG 2314/2316 28012G22KT FM232000 31012G22KT P6SM OVC025 TEMPO 2320/2402 5SM -SHRA BR OVC020 BECMG 2322/2324 30012KT RMK NXT FCST BY 232000Z
NOTAM

Click here for NOTAMs.